• Join FlightAware (Why Join?)
  • Login
  • US Flag 
04:49AM EDT


 

Airport Tracker/Info


-or-


 

Live Flight TrackerFlight Track Log ✈ ASQ6115 ✈ 12-Jun-2013 ✈ KMFE - KIAH

Flight Track Log - Related Links

Times and Time Zones

All times are in EDT time to prevent confusion due to time zone crossing. See the ASQ6115 flight status page for this flight to view local times or setup timezone preferences in your user account.

Time Position Orientation Groundspeed Altitude Reporting Facility
EDT Latitude Longitude Course Direction KTS MPH feet Rate Location/Type
03:45PM 26.1614 -98.2261 22° Northeast 164 189 1,000  Level Houston Center
03:45PM 26.1681 -98.1881 79° East 188 216 2,600 1,980 Climbing Houston Center
03:47PM 26.2233 -98.1342 41° Northeast 241 277 4,900 1,860 Climbing Houston Center
03:48PM 26.2839 -98.0722 43° Northeast 251 289 6,900 1,860 Climbing Houston Center
03:49PM 26.5000 -98.0750 24° Northeast  Level FlightAware Approximate
03:49PM 26.3444 -98.0044 45° Northeast 282 325 9,100  Level Houston Center
03:50PM 26.5665 -98.0427 22° Northeast  Level FlightAware Approximate
03:50PM 26.4031 -97.9375 46° Northeast 297 342 10,400  Level Houston Center
03:51PM 26.4694 -97.8622 45° Northeast 331 381 11,400 1,080 Climbing Houston Center
03:52PM 26.5508 -97.7836 41° Northeast 360 414 12,700 1,200 Climbing Houston Center
03:53PM 26.6500 -97.7569 14° North 369 425 13,900 1,200 Climbing Houston Center
03:54PM 26.7569 -97.7306 12° North 366 421 15,300 1,200 Climbing Houston Center
03:55PM 26.8558 -97.7044 13° North 382 440 16,500 1,200 Climbing Houston Center
03:56PM 26.9625 -97.6786 12° North 366 421 17,800 1,140 Climbing Houston Center
03:57PM 27.0617 -97.6539 13° North 367 422 18,900 900 Climbing Houston Center
03:58PM 27.1497 -97.6333 12° North 366 421 19,700 960 Climbing Houston Center
03:59PM 27.2700 -97.6022 13° North 368 423 20,900 1,020 Climbing Houston Center
04:00PM 27.3767 -97.5756 13° North 384 442 21,800 900 Climbing Houston Center
04:01PM 27.4833 -97.5497 12° North 390 449 22,800 900 Climbing Houston Center
04:02PM 27.5914 -97.5225 13° North 395 455 23,700 900 Climbing Houston Center
04:03PM 27.6944 -97.4778 21° North 399 459 24,700 960 Climbing Houston Center
04:04PM 27.8075 -97.4000 31° Northeast 400 460 25,800 960 Climbing Houston Center
04:05PM 27.9031 -97.3347 31° Northeast 401 461 26,800 480 Climbing Houston Center
04:06PM 28.0061 -97.2633 31° Northeast 407 468 26,900  Climbing Houston Center
04:07PM 28.1094 -97.1911 32° Northeast 428 493 26,900  Level Houston Center
04:08PM 28.2156 -97.1150 32° Northeast 444 511 26,900  Level Houston Center
04:09PM 28.3244 -97.0394 31° Northeast 455 524 26,900  Level Houston Center
04:11PM 28.4342 -96.9617 32° Northeast 462 532 26,900  Level Houston Center
04:12PM 28.5667 -96.8683 32° Northeast 467 537 26,900  Level Houston Center
04:13PM 28.6769 -96.7906 32° Northeast 469 540 26,900 -540 Level Houston Center
04:14PM 28.7853 -96.7128 32° Northeast 465 535 25,800 -1,260 Descending Houston Center
04:15PM 28.8950 -96.6353 32° Northeast 467 537 24,300 -960 Descending Houston Center
04:16PM 29.0000 -96.5594 32° Northeast 454 522 23,900 -600 Descending Houston Center
04:17PM 29.1278 -96.4683 32° Northeast 455 524 23,100 -1,080 Descending Houston Center
04:18PM 29.2325 -96.3947 32° Northeast 446 513 21,700 -1,500 Descending Houston Center
04:18PM 29.3025 -96.3447 32° Northeast 436 502 20,600 -1,980 Descending Houston Center
04:19PM 29.3319 -96.3222 34° Northeast 432 497 19,700 -3,000 Descending Houston Center
04:20PM 29.4217 -96.2578 32° Northeast 394 453 16,400 -3,480 Descending Houston Center
04:21PM 29.5044 -96.2000 31° Northeast 364 419 13,300 -2,400 Descending Houston Center
04:22PM 29.5703 -96.1133 49° Northeast 343 395 12,000 -780 Descending Houston Center
04:23PM 29.6153 -96.0267 59° Northeast 335 386 11,800 -420 Descending Houston Center
04:23PM 29.6272 -96.0033 60° Northeast 337 388 11,500 -1,080 Descending Houston Center
04:24PM 29.6675 -95.9272 59° Northeast 336 387 10,600 -1,200 Descending Houston Center
04:24PM 29.6792 -95.9019 62° Northeast 337 388 10,300 -660 Descending Houston Center
04:25PM 29.7103 -95.8406 60° Northeast 336 387 10,000 -300 Descending Houston Center
04:25PM 29.7256 -95.8097 60° Northeast 335 386 10,000  Level Houston Center
04:26PM 29.7567 -95.7483 60° Northeast 335 386 10,000  Level Houston Center
04:26PM 29.7728 -95.7164 60° Northeast 336 387 10,000 -300 Level Houston Center
04:27PM 29.8014 -95.6589 60° Northeast 316 364 9,700 -780 Descending Houston Center
04:27PM 29.8150 -95.6319 60° Northeast 307 353 9,200 -1,800 Descending Houston Center
04:28PM 29.8369 -95.5875 60° Northeast 273 314 8,100 -1,800 Descending Houston Center
04:28PM 29.8533 -95.5550 60° Northeast 280 322 7,400 -1,740 Descending Houston Center
04:29PM 29.8814 -95.5003 59° Northeast 272 313 6,200 -1,380 Descending Houston Center
04:29PM 29.8911 -95.4792 62° Northeast 273 314 6,000 -120 Descending Houston Center
04:30PM 29.8997 -95.4233 80° East 250 288 6,100  Climbing Houston Center
04:30PM 29.8978 -95.3867 93° East 243 280 6,000 -120 Descending Houston Center
04:31PM 29.8969 -95.3467 91° East 240 276 6,000  Level Houston Center
04:31PM 29.8964 -95.3097 91° East 238 274 6,000 -540 Level Houston Center
04:32PM 29.8958 -95.2672 91° East 240 276 5,500 -1,080 Descending Houston Center
04:32PM 29.8969 -95.2339 88° East 236 272 4,900 -1,500 Descending Houston Center
04:33PM 29.8972 -95.1900 90° East 231 266 4,000 -1,500 Descending Houston Center
04:33PM 29.9058 -95.1622 70° East 240 276 3,400 -1,500 Descending Houston Center
04:34PM 29.9408 -95.1628 359° North 225 259 2,500 -1,800 Descending Houston Center